Terminal Aerodrome Forecast
Issued by NWS

Home | Current Version | Previous Version | Text Only | Print | Product List | Glossary On
Versions: 1 2 3 4 5 6 7 8 9 10 11 12 13 14 15 16 17 18 19
949
FTUS42 KMLB 281128
TAFTIX
TAF
KTIX 281128Z 2812/0112 12004KT P6SM SCT008
      TEMPO 2812/2813 5SM BR
     FM281500 12011KT P6SM SCT035 SCT070
     FM010000 12007KT P6SM SCT035
     FM010800 15004KT P6SM BKN012
      TEMPO 0110/0112 3SM BR=

USA.gov is the U.S. government's official web portal to all federal, state and local government web resources and services.